Flight Track Log - Related Links

Times and Time Zones

All times are in EDT time to prevent confusion due to time zone crossing. See the AAL1491 flight status page for this flight to view local times or setup timezone preferences in your user account.

Time Position Orientation Groundspeed Altitude Reporting Facility
EDT Latitude Longitude Course Direction KTS MPH feet Rate Location/Type
Tue 03:37:12 PM 32.8490 -97.0540 195° South 186 214 2,400  Level FlightAware ADS-B
Tue 03:37:42 PM 32.8220 -97.0650 199° South 224 258 3,000 1,855 Climbing FlightAware ADS-B
Tue 03:38:07 PM 32.7940 -97.0750 197° South 240 276 4,100 2,760 Climbing FlightAware ADS-B
Tue 03:38:32 PM 32.7740 -97.0970 223° Southwest 247 284 5,300 2,914 Climbing FlightAware ADS-B
Tue 03:38:42 PM 32.7700 -97.1100 250° West 251 289 5,800 2,850 Climbing FlightAware ADS-B
Tue 03:39:12 PM 32.7660 -97.1500 263° West 254 292 7,200 2,500 Climbing FlightAware ADS-B
Tue 03:39:42 PM 32.7690 -97.1920 275° West 271 312 8,300 2,057 Climbing FlightAware ADS-B
Tue 03:39:47 PM 32.7690 -97.1990 270° West 273 314 8,400 2,229 Climbing FlightAware ADS-B
Tue 03:40:17 PM 32.7750 -97.2470 278° West 288 331 9,600 1,636 Climbing FlightAware ADS-B
Tue 03:40:42 PM 32.7900 -97.2860 295° West 296 341 9,900 450 Climbing FlightAware ADS-B
Tue 03:40:57 PM 32.7990 -97.3060 298° West 297 342 9,900 133 Level FlightAware ADS-B
Tue 03:41:27 PM 32.8180 -97.3490 298° West 305 351 10,000 1,886 Climbing FlightAware ADS-B
Tue 03:42:07 PM 32.8430 -97.4090 296° West 292 336 12,100 2,925 Climbing FlightAware ADS-B
Tue 03:42:47 PM 32.8660 -97.4610 298° West 293 337 13,900 2,753 Climbing FlightAware ADS-B
Tue 03:43:32 PM 32.8970 -97.5350 297° West 309 356 16,000 2,541 Climbing FlightAware ADS-B
Tue 03:44:12 PM 32.9220 -97.5950 296° West 320 368 17,500 2,259 Climbing FlightAware ADS-B
Tue 03:44:57 PM 32.9520 -97.6650 297° West 330 380 19,200 1,680 Climbing FlightAware ADS-B
Tue 03:45:27 PM 32.9710 -97.7110 296° West 352 405 19,600 1,200 Climbing FlightAware ADS-B
Tue 03:46:27 PM 32.9970 -97.8280 285° West 357 411 21,000 764 Climbing FlightAware ADS-B
Tue 03:47:17 PM 33.0130 -97.9100 283° West 357 411 21,000  Level FlightAware ADS-B
Tue 03:47:57 PM 33.0250 -97.9750 282° West 357 411 21,000  Level FlightAware ADS-B
Tue 03:48:37 PM 33.0380 -98.0400 283° West 357 411 21,000  Level FlightAware ADS-B
Tue 03:49:17 PM 33.0510 -98.1060 283° West 357 411 21,000  Level FlightAware ADS-B
Tue 03:49:57 PM 33.0630 -98.1710 282° West 357 411 21,000 5,067 Level FlightAware ADS-B
Tue 03:50:47 PM 33.0780 -98.3690 275° West 397 457 28,600 5,700 Climbing FlightAware ADS-B
Tue 03:51:17 PM 33.0860 -98.4240 280° West 397 457 28,600  Level FlightAware ADS-B
Tue 03:51:57 PM 33.0970 -98.4980 280° West 397 457 28,600  Level FlightAware ADS-B
Tue 03:52:37 PM 33.1080 -98.5710 280° West 397 457 28,600 2,259 Level FlightAware ADS-B
Tue 03:53:22 PM 33.1300 -98.7130 281° West 415 478 31,800 3,388 Climbing FlightAware ADS-B
Tue 03:54:02 PM 33.1450 -98.8090 281° West 409 471 33,400 1,271 Climbing FlightAware ADS-B
Tue 03:54:47 PM 33.1580 -98.9000 280° West 408 470 33,600 141 Climbing FlightAware ADS-B
Tue 03:55:27 PM 33.1690 -98.9750 280° West 408 470 33,600 1,533 Level FlightAware ADS-B
Tue 03:56:17 PM 33.2420 -99.0900 307° West 416 479 35,900 1,950 Climbing FlightAware ADS-B
Tue 03:56:47 PM 33.2660 -99.1480 296° West 417 480 36,200 505 Climbing FlightAware ADS-B
Tue 03:57:52 PM 33.3220 -99.2840 296° West 420 483 36,700 286 Climbing FlightAware ADS-B
Tue 03:58:32 PM 33.3510 -99.3560 296° West 420 483 36,700  Level FlightAware ADS-B
Tue 03:59:12 PM 33.3800 -99.4270 296° West 420 483 36,700  Level FlightAware ADS-B
Tue 03:59:52 PM 33.4090 -99.4980 296° West 420 483 36,700  Level FlightAware ADS-B
Tue 04:00:42 PM 33.4450 -99.5870 296° West 420 483 36,700  Level FlightAware ADS-B
Tue 04:01:22 PM 33.4740 -99.6580 296° West 420 483 36,700  Level FlightAware ADS-B
Tue 04:02:02 PM 33.5030 -99.7290 296° West 420 483 36,700  Level FlightAware ADS-B
Tue 04:02:42 PM 33.5320 -99.8000 296° West 420 483 36,700  Level FlightAware ADS-B
Tue 04:03:32 PM 33.5680 -99.8890 296° West 420 483 36,700  Level FlightAware ADS-B
Tue 04:04:12 PM 33.5970 -99.9610 296° West 420 483 36,700  Level FlightAware ADS-B
Tue 04:04:52 PM 33.6260 -100.0320 296° West 420 483 36,700  Level FlightAware ADS-B
Tue 04:05:32 PM 33.6550 -100.1030 296° West 420 483 36,700  Level FlightAware ADS-B
Tue 04:06:12 PM 33.6840 -100.1750 296° West 420 483 36,700  Level FlightAware ADS-B
Tue 04:07:02 PM 33.7200 -100.2640 296° West 420 483 36,700 951 Level FlightAware ADS-B
Tue 04:07:34 PM 33.8156 -100.5133 296° West 423 487 38,000 848 Climbing Fort Worth Center
Tue 04:08:34 PM 33.8689 -100.6378 297° West 423 487 38,000  Level Fort Worth Center
Tue 04:09:34 PM 33.9197 -100.7625 296° West 423 487 38,000  Level Fort Worth Center
Tue 04:10:34 PM 33.9686 -100.8869 295° West 423 487 38,000  Level Fort Worth Center
Tue 04:11:34 PM 34.0192 -101.0142 296° West 423 487 38,000  Level Fort Worth Center
Tue 04:12:34 PM 34.0697 -101.1467 295° West 423 487 38,000  Level Fort Worth Center
Tue 04:13:34 PM 34.1158 -101.2717 294° West 424 488 38,000  Level Fort Worth Center
Tue 04:14:34 PM 34.1681 -101.4044 295° West 424 488 38,000  Level Fort Worth Center
Tue 04:15:34 PM 34.2144 -101.5197 296° West 423 487 38,000  Level Fort Worth Center
Tue 04:16:34 PM 34.2681 -101.6656 294° West 433 498 38,000  Level Fort Worth Center
Tue 04:17:35 PM 34.3119 -101.7808 295° West 427 491 38,000  Level Fort Worth Center
Tue 04:18:34 PM 34.3636 -101.9117 296° West 432 497 38,000  Level Fort Worth Center
Tue 04:18:59 PM 34.3872 -101.9769 294° West 435 501 38,000  Level Albuquerque Center
Tue 04:20:01 PM 34.4386 -102.1097 295° West 436 502 38,000  Level Albuquerque Center
Tue 04:21:03 PM 34.4883 -102.2442 294° West 436 502 38,000  Level Albuquerque Center
Tue 04:22:04 PM 34.5381 -102.3769 294° West 433 498 38,000  Level Albuquerque Center
Tue 04:23:06 PM 34.5878 -102.5117 294° West 435 501 38,000  Level Albuquerque Center
Tue 04:24:08 PM 34.6450 -102.6636 295° West 435 501 38,000  Level Albuquerque Center
Tue 04:25:10 PM 34.6956 -102.7981 295° West 435 501 38,000  Level Albuquerque Center
Tue 04:26:11 PM 34.7450 -102.9331 294° West 434 499 38,000  Level Albuquerque Center
Tue 04:27:13 PM 34.7942 -103.0681 294° West 434 499 38,000  Level Albuquerque Center
Tue 04:28:15 PM 34.8456 -103.2019 295° West 433 498 38,000  Level Albuquerque Center
Tue 04:29:17 PM 34.8933 -103.3378 293° West 433 498 38,000  Level Albuquerque Center
Tue 04:30:18 PM 34.9428 -103.4731 294° West 433 498 38,000  Level Albuquerque Center
Tue 04:31:20 PM 34.9919 -103.6086 294° West 433 498 38,000  Level Albuquerque Center
Tue 04:32:22 PM 35.0500 -103.7667 294° West 433 498 38,000  Level Albuquerque Center
Tue 04:33:24 PM 35.0983 -103.9039 293° West 436 502 38,000  Level Albuquerque Center
Tue 04:34:25 PM 35.1494 -104.0453 294° West 444 511 38,000  Level Albuquerque Center
Tue 04:35:27 PM 35.1983 -104.1825 294° West 442 509 38,000  Level Albuquerque Center
Tue 04:36:29 PM 35.2464 -104.3211 293° West 442 509 38,000  Level Albuquerque Center
Tue 04:37:31 PM 35.2967 -104.4617 294° West 449 517 38,000  Level Albuquerque Center
Tue 04:38:32 PM 35.3506 -104.6186 293° West 450 518 38,000  Level Albuquerque Center
Tue 04:39:34 PM 35.4003 -104.7631 293° West 455 524 38,000  Level Albuquerque Center
Tue 04:40:36 PM 35.4511 -104.9083 293° West 458 527 38,000  Level Albuquerque Center
Tue 04:41:38 PM 35.5014 -105.0556 293° West 462 532 38,000  Level Albuquerque Center
Tue 04:42:39 PM 35.5539 -105.2006 294° West 460 529 38,000  Level Albuquerque Center
Tue 04:48:17 PM 35.8630 -106.0130 294° West 462 532 38,000  Level FlightAware ADS-B
Tue 04:48:57 PM 35.8930 -106.1060 292° West 464 534 38,000  Level FlightAware ADS-B
Tue 04:49:42 PM 35.9320 -106.2240 292° West 466 536 38,000  Level FlightAware ADS-B
Tue 04:50:37 PM 35.9750 -106.3560 292° West 468 539 38,000  Level FlightAware ADS-B
Tue 04:51:22 PM 36.0120 -106.4690 292° West 464 534 38,000  Level FlightAware ADS-B
Tue 04:52:02 PM 36.0440 -106.5680 292° West 465 535 38,000  Level FlightAware ADS-B
Tue 04:52:57 PM 36.0860 -106.6980 292° West 466 536 38,000  Level FlightAware ADS-B
Tue 04:53:42 PM 36.1210 -106.8060 292° West 466 536 38,000  Level FlightAware ADS-B
Tue 04:54:22 PM 36.1530 -106.9070 291° West 466 536 38,000  Level FlightAware ADS-B
Tue 04:55:02 PM 36.1790 -106.9920 291° West 466 536 38,000  Level FlightAware ADS-B
Tue 04:55:47 PM 36.2220 -107.1240 292° West 471 542 38,000  Level FlightAware ADS-B
Tue 04:56:22 PM 36.2470 -107.2040 291° West 471 542 38,000  Level FlightAware ADS-B
Tue 04:57:02 PM 36.2730 -107.2900 291° West 471 542 38,000  Level FlightAware ADS-B
Tue 04:57:52 PM 36.3070 -107.3970 292° West 471 542 38,000  Level FlightAware ADS-B
Tue 04:58:32 PM 36.3330 -107.4830 291° West 471 542 38,000  Level FlightAware ADS-B
Tue 04:59:12 PM 36.3600 -107.5690 291° West 471 542 38,000  Level FlightAware ADS-B
Tue 04:59:52 PM 36.3860 -107.6540 291° West 471 542 38,000  Level FlightAware ADS-B
Tue 05:00:32 PM 36.4130 -107.7400 291° West 471 542 38,000  Level FlightAware ADS-B
Tue 05:01:22 PM 36.4460 -107.8480 291° West 471 542 38,000  Level FlightAware ADS-B
Tue 05:02:02 PM 36.4730 -107.9340 291° West 471 542 38,000  Level FlightAware ADS-B
Tue 05:02:42 PM 36.5470 -108.1670 292° West 464 534 38,000  Level FlightAware ADS-B
Tue 05:03:27 PM 36.5790 -108.2710 291° West 465 535 38,000  Level FlightAware ADS-B
Tue 05:04:07 PM 36.6110 -108.3740 291° West 465 535 38,000  Level FlightAware ADS-B
Tue 05:04:52 PM 36.6460 -108.4900 291° West 467 537 38,000  Level FlightAware ADS-B
Tue 05:06:07 PM 36.7020 -108.6750 291° West 469 540 38,000  Level FlightAware ADS-B
Tue 05:06:47 PM 36.7320 -108.7750 291° West 470 541 38,000  Level FlightAware ADS-B
Tue 05:07:42 PM 36.7720 -108.9110 290° West 470 541 38,000  Level FlightAware ADS-B
Tue 05:08:27 PM 36.8040 -109.0180 291° West 469 540 38,000  Level FlightAware ADS-B
Tue 05:09:02 PM 36.8290 -109.1020 290° West 469 540 38,000  Level FlightAware ADS-B
Tue 05:09:47 PM 36.8690 -109.2370 290° West 464 534 38,000  Level FlightAware ADS-B
Tue 05:10:42 PM 36.9020 -109.3480 290° West 464 534 38,000  Level FlightAware ADS-B
Tue 05:11:22 PM 36.9260 -109.4330 289° West 464 534 38,000  Level FlightAware ADS-B
Tue 05:12:12 PM 36.9580 -109.5410 290° West 464 534 38,000  Level FlightAware ADS-B
Tue 05:12:52 PM 36.9830 -109.6260 290° West 464 534 38,000  Level FlightAware ADS-B
Tue 05:13:32 PM 37.0080 -109.7120 290° West 464 534 38,000  Level FlightAware ADS-B
Tue 05:14:12 PM 37.0330 -109.7980 290° West 464 534 38,000  Level FlightAware ADS-B
Tue 05:14:52 PM 37.0570 -109.8840 289° West 464 534 38,000  Level FlightAware ADS-B
Tue 05:15:42 PM 37.0890 -109.9920 290° West 464 534 38,000  Level FlightAware ADS-B
Tue 05:16:22 PM 37.1140 -110.0780 290° West 464 534 38,000  Level FlightAware ADS-B
Tue 05:16:52 PM 37.1320 -110.1420 289° West 464 534 38,000  Level FlightAware ADS-B
Tue 05:17:32 PM 37.1570 -110.2280 290° West 464 534 38,000  Level FlightAware ADS-B
Tue 05:18:12 PM 37.1820 -110.3140 290° West 464 534 38,000  Level FlightAware ADS-B
Tue 05:18:52 PM 37.2070 -110.4000 290° West 464 534 38,000  Level FlightAware ADS-B
Tue 05:19:32 PM 37.2320 -110.4870 290° West 464 534 38,000  Level FlightAware ADS-B
Tue 05:20:12 PM 37.2570 -110.5730 290° West 464 534 38,000  Level FlightAware ADS-B
Tue 05:20:34 PM 37.3306 -110.8469 290° West 460 529 38,000  Level Denver Center
Tue 05:21:36 PM 37.3719 -111.0000 289° West 464 534 38,000  Level Denver Center
Tue 05:22:38 PM 37.4139 -111.1503 289° West 459 528 38,000  Level Denver Center
Tue 05:23:40 PM 37.4547 -111.3022 289° West 459 528 38,000  Level Denver Center
Tue 05:24:41 PM 37.5033 -111.4808 289° West 453 521 38,000  Level Denver Center
Tue 05:25:43 PM 37.5436 -111.6297 289° West 451 519 38,000  Level Denver Center
Tue 05:26:45 PM 37.5842 -111.7775 289° West 447 514 38,000  Level Denver Center
Tue 05:27:47 PM 37.6242 -111.9267 289° West 449 517 38,000  Level Denver Center
Tue 05:28:24 PM 37.6478 -112.0164 288° West 452 520 38,000  Level Salt Lake Center
Tue 05:29:26 PM 37.6878 -112.1633 289° West 447 514 38,000  Level Salt Lake Center
Tue 05:30:27 PM 37.7272 -112.3122 289° West 448 516 38,000  Level Salt Lake Center
Tue 05:31:29 PM 37.7731 -112.4894 288° West 447 514 38,000  Level Salt Lake Center
Tue 05:32:31 PM 37.8117 -112.6356 289° West 445 512 38,000  Level Salt Lake Center
Tue 05:33:33 PM 37.8494 -112.7817 288° West 444 511 38,000  Level Salt Lake Center
Tue 05:34:34 PM 37.8856 -112.9278 287° West 443 510 38,000  Level Salt Lake Center
Tue 05:35:36 PM 37.9225 -113.0736 288° West 441 507 38,000  Level Salt Lake Center
Tue 05:36:38 PM 37.9661 -113.2481 288° West 438 504 38,000  Level Salt Lake Center
Tue 05:37:40 PM 38.0022 -113.3942 287° West 437 503 38,000  Level Salt Lake Center
Tue 05:38:41 PM 38.0397 -113.5397 288° West 436 502 38,000  Level Salt Lake Center
Tue 05:39:43 PM 38.0769 -113.6875 288° West 439 505 38,000  Level Salt Lake Center
Tue 05:40:45 PM 38.1133 -113.8336 288° West 438 504 38,000  Level Salt Lake Center
Tue 05:41:46 PM 38.1497 -113.9772 288° West 431 496 38,000  Level Salt Lake Center
Tue 05:42:48 PM 38.1906 -114.1528 287° West 432 497 38,000  Level Salt Lake Center
Tue 05:43:50 PM 38.1972 -114.3011 273° West 426 490 38,000  Level Salt Lake Center
Tue 05:44:52 PM 38.1931 -114.4492 268° West 423 487 38,000  Level Salt Lake Center
Tue 05:45:53 PM 38.1864 -114.5958 267° West 419 482 38,000  Level Salt Lake Center
Tue 05:46:55 PM 38.1800 -114.7447 267° West 422 486 38,000  Level Salt Lake Center
Tue 05:47:57 PM 38.1731 -114.8917 267° West 421 484 38,000  Level Salt Lake Center
Tue 05:48:59 PM 38.1661 -115.0394 267° West 421 484 38,000  Level Salt Lake Center
Tue 05:50:01 PM 38.1578 -115.2167 267° West 420 483 38,000  Level Salt Lake Center
Tue 05:51:05 PM 38.1511 -115.3533 266° West 420 483 38,000  Level Salt Lake Center
Tue 05:52:04 PM 38.1442 -115.5006 267° West 418 481 38,000  Level Salt Lake Center
Tue 05:53:06 PM 38.1356 -115.6481 266° West 417 480 38,000  Level Salt Lake Center
Tue 05:54:08 PM 38.1261 -115.8228 266° West 414 476 38,000  Level Salt Lake Center
Tue 05:55:09 PM 38.1189 -115.9683 266° West 413 475 38,000  Level Salt Lake Center
Tue 05:56:13 PM 38.1092 -116.1147 265° West 416 479 38,000  Level Salt Lake Center
Tue 05:56:37 PM 38.1050 -116.1736 265° West 415 478 38,000  Level Oakland Center
Tue 05:57:13 PM 38.1011 -116.2614 267° West 416 479 38,000  Level Salt Lake Center
Tue 05:58:14 PM 38.0925 -116.4086 266° West 417 480 38,000  Level Salt Lake Center
Tue 05:59:16 PM 38.0833 -116.5539 265° West 413 475 38,000  Level Salt Lake Center
Tue 06:00:18 PM 38.0744 -116.7019 266° West 418 481 38,000  Level Salt Lake Center
Tue 06:01:20 PM 38.0650 -116.8503 265° West 421 484 38,000  Level Salt Lake Center
Tue 06:01:44 PM 38.0611 -116.9094 265° West 419 482 38,000  Level Oakland Center
Tue 06:02:45 PM 38.0519 -117.0564 266° West 415 478 38,000  Level Oakland Center
Tue 06:03:23 PM 38.0461 -117.1436 265° West 409 471 38,000  Level Salt Lake Center
Tue 06:03:46 PM 38.0411 -117.2025 264° West 406 467 38,000  Level Oakland Center
Tue 06:04:48 PM 38.0317 -117.3500 265° West 409 471 38,000  Level Oakland Center
Tue 06:05:49 PM 38.0228 -117.4925 266° West 404 465 38,000  Level Oakland Center
Tue 06:06:50 PM 38.0106 -117.6667 265° West 410 472 38,000  Level Oakland Center
Tue 06:07:51 PM 37.9989 -117.8103 264° West 411 473 38,000  Level Oakland Center
Tue 06:08:53 PM 37.9839 -117.9531 262° West 408 470 38,000  Level Oakland Center
Tue 06:14:27 PM 37.8980 -118.7410 262° West 404 465 38,000  Level FlightAware ADS-B
Tue 06:15:07 PM 37.8900 -118.8200 263° West 404 465 38,000  Level FlightAware ADS-B
Tue 06:15:57 PM 37.8730 -118.9600 261° West 405 466 38,000  Level FlightAware ADS-B
Tue 06:16:37 PM 37.8630 -119.0540 262° West 404 465 38,000  Level FlightAware ADS-B
Tue 06:17:17 PM 37.8520 -119.1460 261° West 402 463 38,000  Level FlightAware ADS-B
Tue 06:17:57 PM 37.8410 -119.2400 262° West 404 465 38,000  Level FlightAware ADS-B
Tue 06:18:42 PM 37.8290 -119.3420 262° West 408 470 38,000  Level FlightAware ADS-B
Tue 06:19:22 PM 37.8180 -119.4370 262° West 405 466 38,000  Level FlightAware ADS-B
Tue 06:20:07 PM 37.8050 -119.5460 261° West 408 470 38,000 -282 Level FlightAware ADS-B
Tue 06:20:47 PM 37.7940 -119.6400 262° West 410 472 37,600 -1,412 Descending FlightAware ADS-B
Tue 06:21:32 PM 37.7810 -119.7480 261° West 408 470 36,000 -1,976 Descending FlightAware ADS-B
Tue 06:22:12 PM 37.7690 -119.8400 261° West 412 474 34,800 -1,412 Descending FlightAware ADS-B
Tue 06:22:57 PM 37.7560 -119.9500 262° West 420 483 34,000 -960 Descending FlightAware ADS-B
Tue 06:23:27 PM 37.7480 -120.0130 261° West 423 487 33,600 -975 Descending FlightAware ADS-B
Tue 06:24:17 PM 37.7320 -120.1440 261° West 419 482 32,700 -1,011 Descending FlightAware ADS-B
Tue 06:25:02 PM 37.7180 -120.2550 261° West 423 487 32,000 -988 Descending FlightAware ADS-B
Tue 06:25:42 PM 37.7060 -120.3480 261° West 426 490 31,300 -2,047 Descending FlightAware ADS-B
Tue 06:26:27 PM 37.6920 -120.4590 261° West 431 496 29,100 -2,824 Descending FlightAware ADS-B
Tue 06:27:07 PM 37.6790 -120.5610 261° West 428 493 27,300 -2,653 Descending FlightAware ADS-B
Tue 06:28:02 PM 37.6620 -120.6940 261° West 414 476 24,900 -2,400 Descending FlightAware ADS-B
Tue 06:28:47 PM 37.6490 -120.7970 261° West 393 452 23,300 -2,118 Descending FlightAware ADS-B
Tue 06:29:27 PM 37.6370 -120.8870 260° West 383 441 21,900 -2,100 Descending FlightAware ADS-B
Tue 06:30:07 PM 37.6250 -120.9730 260° West 373 429 20,500 -2,047 Descending FlightAware ADS-B
Tue 06:30:52 PM 37.6150 -121.0690 263° West 363 418 19,000 -1,875 Descending FlightAware ADS-B
Tue 06:31:27 PM 37.6080 -121.1340 262° West 358 412 18,000 -1,976 Descending FlightAware ADS-B
Tue 06:32:17 PM 37.5950 -121.2460 262° West 349 402 16,200 -2,118 Descending FlightAware ADS-B
Tue 06:32:52 PM 37.5870 -121.3140 262° West 345 397 15,000 -2,025 Descending FlightAware ADS-B
Tue 06:33:37 PM 37.5760 -121.4040 261° West 344 396 13,500 -1,867 Descending FlightAware ADS-B
Tue 06:34:22 PM 37.5600 -121.4880 257° West 339 390 12,200 -1,553 Descending FlightAware ADS-B
Tue 06:35:02 PM 37.5440 -121.5650 255° West 334 384 11,300 -1,050 Descending FlightAware ADS-B
Tue 06:35:42 PM 37.5290 -121.6410 256° West 328 377 10,800 -706 Descending FlightAware ADS-B
Tue 06:36:27 PM 37.5140 -121.7190 256° West 296 341 10,300 -880 Descending FlightAware ADS-B
Tue 06:36:57 PM 37.5040 -121.7700 256° West 285 328 9,700 -1,091 Descending FlightAware ADS-B
Tue 06:37:22 PM 37.4970 -121.8030 255° West 282 325 9,300 -1,200 Descending FlightAware ADS-B
Tue 06:37:37 PM 37.4910 -121.8340 256° West 275 316 8,900 -1,200 Descending FlightAware ADS-B
Tue 06:38:07 PM 37.4840 -121.8760 258° West 268 308 8,400 -982 Descending FlightAware ADS-B
Tue 06:38:32 PM 37.4890 -121.9110 280° West 261 300 8,000 -1,200 Descending FlightAware ADS-B
Tue 06:38:47 PM 37.4930 -121.9330 283° West 257 296 7,600 -1,029 Descending FlightAware ADS-B
Tue 06:39:07 PM 37.4980 -121.9570 285° West 252 290 7,400 -1,418 Descending FlightAware ADS-B
Tue 06:39:42 PM 37.5090 -122.0130 284° West 244 281 6,300 -1,846 Descending FlightAware ADS-B
Tue 06:40:12 PM 37.5200 -122.0500 291° West 240 276 5,400 -1,418 Descending FlightAware ADS-B
Tue 06:40:37 PM 37.5300 -122.0810 292° West 224 258 5,000 -1,050 Descending FlightAware ADS-B
Tue 06:40:52 PM 37.5360 -122.0990 293° West 216 249 4,700 -1,067 Descending FlightAware ADS-B
Tue 06:41:22 PM 37.5450 -122.1290 291° West 208 239 4,200 -873 Descending FlightAware ADS-B
Tue 06:41:47 PM 37.5550 -122.1600 292° West 192 221 3,900 -873 Descending FlightAware ADS-B
Tue 06:42:17 PM 37.5640 -122.1890 291° West 180 207 3,400 -545 Descending FlightAware ADS-B
Tue 06:42:42 PM 37.5710 -122.2130 290° West 180 207 3,400  Level FlightAware ADS-B

Login

Don't have an account? Register now (free) for customized features, flight alerts, and more!